Time;durP1;ratioP1;P1;durP2;ratioP2;P2;SDS_P1;SDS_P2;PMS_P1;PMS_P2;Temp;Humidity;BMP_temperature;BMP_pressure;BME280_temperature;BME280_humidity;BME280_pressure;Samples;Min_cycle;Max_cycle;Signal;HPM_P1;HPM_P2
2021/04/05 00:00:14;;;;;;;26.80;3.80;;;4.50;99.90;;;;;;5055469;28;20179;-50
2021/04/05 00:02:40;;;;;;;44.03;4.45;;;4.40;99.90;;;;;;5054938;28;20193;-52
2021/04/05 00:05:28;;;;;;;32.60;3.45;;;4.40;99.90;;;;;;5056125;28;20678;-50
2021/04/05 00:07:54;;;;;;;32.13;3.50;;;4.20;99.90;;;;;;5055189;28;20217;-50
2021/04/05 00:10:32;;;;;;;29.63;3.75;;;4.20;99.90;;;;;;5055115;28;20178;-49
2021/04/05 00:13:00;;;;;;;20.77;2.95;;;4.10;99.90;;;;;;5063139;28;20197;-50
2021/04/05 00:15:26;;;;;;;21.70;1.83;;;4.00;99.90;;;;;;5062519;28;20658;-50
2021/04/05 00:17:52;;;;;;;22.92;2.92;;;3.90;99.90;;;;;;5054969;28;20175;-52
2021/04/05 00:20:40;;;;;;;10.57;1.42;;;4.00;99.90;;;;;;5076164;28;20166;-49
2021/04/05 00:23:06;;;;;;;18.80;1.65;;;3.90;99.90;;;;;;5068594;28;20190;-52
2021/04/05 00:25:33;;;;;;;21.55;2.67;;;4.00;99.90;;;;;;5067441;28;20182;-51
2021/04/05 00:28:01;;;;;;;22.50;3.13;;;4.10;99.90;;;;;;5069288;28;20534;-51
2021/04/05 00:30:35;;;;;;;27.77;3.60;;;4.00;99.90;;;;;;5054179;28;20241;-50
2021/04/05 00:33:01;;;;;;;18.63;2.50;;;4.10;99.90;;;;;;5054773;28;20163;-49
2021/04/05 00:35:28;;;;;;;20.60;2.72;;;4.00;99.90;;;;;;5066033;28;20166;-48
2021/04/05 00:37:55;;;;;;;36.28;3.65;;;4.10;99.90;;;;;;5072144;28;20217;-48
2021/04/05 00:40:37;;;;;;;17.40;2.10;;;4.10;99.90;;;;;;5064499;28;20193;-51
2021/04/05 00:43:05;;;;;;;17.70;2.05;;;4.00;99.90;;;;;;5074304;28;20196;-51
2021/04/05 00:45:31;;;;;;;22.77;3.33;;;4.00;99.90;;;;;;5074729;28;20653;-48
2021/04/05 00:47:57;;;;;;;11.27;1.80;;;4.00;99.90;;;;;;5073272;28;20174;-50
2021/04/05 00:50:33;;;;;;;15.80;2.38;;;3.90;99.90;;;;;;5060682;28;20504;-51
2021/04/05 00:53:04;;;;;;;14.48;1.80;;;3.90;99.90;;;;;;5061772;28;20185;-51
2021/04/05 00:55:30;;;;;;;11.45;1.85;;;3.80;99.90;;;;;;5072293;28;20197;-49
2021/04/05 00:57:57;;;;;;;8.30;1.02;;;3.80;99.90;;;;;;5072667;28;20205;-51
2021/04/05 01:00:38;;;;;;;6.75;1.17;;;3.80;99.90;;;;;;5071375;28;20173;-51
2021/04/05 01:03:04;;;;;;;5.10;0.82;;;3.60;99.90;;;;;;5054108;28;20193;-47
2021/04/05 01:05:31;;;;;;;1.10;0.30;;;3.50;99.90;;;;;;5059163;28;20194;-48
2021/04/05 01:07:57;;;;;;;4.85;0.70;;;3.40;99.90;;;;;;5065369;28;20191;-50
2021/04/05 01:10:24;;;;;;;4.65;0.50;;;3.30;99.90;;;;;;5065219;28;20178;-47
2021/04/05 01:12:50;;;;;;;5.68;0.50;;;3.20;99.90;;;;;;5066065;28;20190;-48
2021/04/05 01:15:17;;;;;;;3.80;0.55;;;3.20;99.90;;;;;;5053873;28;20175;-48
2021/04/05 01:17:43;;;;;;;1.23;0.32;;;3.10;99.90;;;;;;5053666;28;20206;-47
2021/04/05 01:20:11;;;;;;;5.00;0.73;;;3.10;99.90;;;;;;5053963;28;20619;-47
2021/04/05 01:22:37;;;;;;;4.13;0.50;;;3.10;99.90;;;;;;5053455;28;20616;-48
2021/04/05 01:25:10;;;;;;;1.55;0.32;;;3.20;99.90;;;;;;5053154;28;20186;-51
2021/04/05 01:27:37;;;;;;;3.20;0.57;;;3.20;99.90;;;;;;5053768;28;20171;-49
2021/04/05 01:30:30;;;;;;;0.57;0.20;;;3.30;99.90;;;;;;5055119;28;20595;-49
2021/04/05 01:33:05;;;;;;;2.47;0.30;;;3.20;99.90;;;;;;5065570;28;20617;-47
2021/04/05 01:35:58;;;;;;;3.65;0.50;;;3.10;99.90;;;;;;5057838;28;20190;-47
2021/04/05 01:38:30;;;;;;;6.15;0.75;;;3.00;99.90;;;;;;5052096;28;20272;-46
2021/04/05 01:40:58;;;;;;;5.90;0.80;;;3.20;99.90;;;;;;5069909;28;20167;-47
2021/04/05 01:43:24;;;;;;;0.57;0.20;;;3.10;99.90;;;;;;5060818;28;20178;-48
2021/04/05 01:45:53;;;;;;;2.83;0.32;;;3.20;99.90;;;;;;5054780;28;20186;-46
2021/04/05 01:48:24;;;;;;;3.08;0.40;;;3.10;99.90;;;;;;5068874;28;20177;-47
2021/04/05 01:50:50;;;;;;;3.85;0.40;;;3.10;99.90;;;;;;5064495;28;20166;-48
2021/04/05 01:53:19;;;;;;;2.33;0.52;;;3.10;99.90;;;;;;5067488;28;20178;-47
2021/04/05 01:55:46;;;;;;;5.35;0.60;;;3.20;99.90;;;;;;5061502;28;20185;-47
2021/04/05 01:58:16;;;;;;;4.70;0.98;;;3.20;99.90;;;;;;5072327;28;20222;-47
2021/04/05 02:00:42;;;;;;;6.03;1.00;;;3.10;99.90;;;;;;5060146;28;20189;-47
2021/04/05 02:03:09;;;;;;;1.40;0.30;;;3.00;97.10;;;;;;5065028;28;20177;-46
2021/04/05 02:05:37;;;;;;;1.60;0.20;;;3.20;90.70;;;;;;5059700;28;20194;-46
2021/04/05 02:08:05;;;;;;;2.88;0.15;;;3.20;88.80;;;;;;5052343;28;20634;-46
2021/04/05 02:10:31;;;;;;;1.83;0.30;;;3.10;87.90;;;;;;5060232;28;20170;-46
2021/04/05 02:12:58;;;;;;;7.45;0.85;;;3.00;89.00;;;;;;5075644;28;20189;-46
2021/04/05 02:15:24;;;;;;;7.25;0.43;;;2.90;90.30;;;;;;5058958;28;20248;-46
2021/04/05 02:17:51;;;;;;;2.10;0.30;;;2.80;91.90;;;;;;5056274;28;20210;-47
2021/04/05 02:20:18;;;;;;;1.95;1.08;;;2.90;89.00;;;;;;5067863;28;20658;-46
2021/04/05 02:22:48;;;;;;;3.05;0.43;;;2.90;86.30;;;;;;5067853;28;20534;-46
2021/04/05 02:25:21;;;;;;;3.30;0.30;;;2.90;87.30;;;;;;5065383;28;20197;-48
2021/04/05 02:27:48;;;;;;;6.03;0.65;;;2.80;88.60;;;;;;5066270;28;20531;-47
2021/04/05 02:30:23;;;;;;;0.55;0.30;;;2.70;88.10;;;;;;5074329;28;20228;-46
2021/04/05 02:32:59;;;;;;;4.18;0.50;;;2.80;83.00;;;;;;5068162;28;20523;-47
2021/04/05 02:35:27;;;;;;;3.92;0.52;;;2.60;84.80;;;;;;5067225;28;20166;-46
2021/04/05 02:37:55;;;;;;;1.95;0.38;;;2.50;81.00;;;;;;5076070;28;20217;-47
2021/04/05 02:40:21;;;;;;;2.50;0.60;;;2.60;78.30;;;;;;5066966;28;20178;-47
2021/04/05 02:42:48;;;;;;;7.18;0.75;;;2.50;78.90;;;;;;5057471;28;20186;-47
2021/04/05 02:45:19;;;;;;;4.03;0.68;;;2.30;88.90;;;;;;5060979;28;20179;-46
2021/04/05 02:47:47;;;;;;;2.67;0.63;;;2.30;84.30;;;;;;5060978;28;20213;-46
2021/04/05 02:50:13;;;;;;;2.10;0.73;;;2.30;86.60;;;;;;5067703;28;20187;-47
2021/04/05 02:52:40;;;;;;;5.10;0.52;;;2.20;89.00;;;;;;5035972;28;20174;-46
2021/04/05 02:55:09;;;;;;;4.15;0.30;;;2.30;87.50;;;;;;5041383;28;20181;-46
2021/04/05 02:57:36;;;;;;;1.73;0.35;;;2.30;83.00;;;;;;5038149;28;20523;-47
2021/04/05 03:00:09;;;;;;;6.30;0.52;;;2.30;80.00;;;;;;5068710;28;20178;-46
2021/04/05 03:02:39;;;;;;;1.17;0.40;;;2.10;80.60;;;;;;5057329;28;20174;-46
2021/04/05 03:05:06;;;;;;;6.10;0.52;;;2.10;77.50;;;;;;5052277;28;20210;-47
2021/04/05 03:07:33;;;;;;;3.38;0.55;;;2.10;78.30;;;;;;5069456;28;20186;-46
2021/04/05 03:10:00;;;;;;;2.35;0.45;;;2.00;77.50;;;;;;5026413;28;20178;-48
2021/04/05 03:12:27;;;;;;;3.25;0.75;;;2.00;80.20;;;;;;5062748;28;20189;-47
2021/04/05 03:14:54;;;;;;;7.50;0.43;;;2.00;79.50;;;;;;5052102;28;20174;-51
2021/04/05 03:17:21;;;;;;;5.07;0.88;;;2.00;78.90;;;;;;5049641;28;20187;-49
2021/04/05 03:19:47;;;;;;;6.10;0.57;;;1.80;83.40;;;;;;5074696;28;20206;-46
2021/04/05 03:22:13;;;;;;;2.72;0.50;;;1.90;82.70;;;;;;5061301;28;20182;-46
2021/04/05 03:24:39;;;;;;;1.42;0.43;;;1.90;81.60;;;;;;5059531;28;20190;-47
2021/04/05 03:27:06;;;;;;;4.97;0.80;;;1.90;82.60;;;;;;5061502;28;20189;-48
2021/04/05 03:29:33;;;;;;;4.20;0.73;;;1.80;83.20;;;;;;5073514;28;20213;-48
2021/04/05 03:32:00;;;;;;;6.22;0.70;;;1.80;82.10;;;;;;5081715;28;20162;-49
2021/04/05 03:34:27;;;;;;;3.63;0.55;;;1.80;82.10;;;;;;5072279;28;20166;-47
2021/04/05 03:37:06;;;;;;;1.83;0.38;;;1.80;82.90;;;;;;5061406;28;20197;-48
2021/04/05 03:39:32;;;;;;;24.30;3.42;;;1.80;82.70;;;;;;5070097;28;20190;-51
2021/04/05 03:42:12;;;;;;;4.30;0.50;;;1.70;85.40;;;;;;5082600;28;20208;-48
2021/04/05 03:44:53;;;;;;;1.70;0.45;;;1.70;85.80;;;;;;5071003;28;20625;-50
2021/04/05 03:47:39;;;;;;;8.20;0.90;;;1.70;88.40;;;;;;5058237;28;20169;-47
2021/04/05 03:50:17;;;;;;;7.50;0.70;;;1.60;90.50;;;;;;5065457;28;20236;-49
2021/04/05 03:52:49;;;;;;;7.03;0.88;;;1.60;87.70;;;;;;5056991;28;20186;-49
2021/04/05 03:55:15;;;;;;;4.85;0.73;;;1.50;86.80;;;;;;5073988;28;20167;-49
2021/04/05 03:57:44;;;;;;;5.78;0.80;;;1.50;83.70;;;;;;5085420;28;20185;-49
2021/04/05 04:00:12;;;;;;;5.20;0.50;;;1.50;86.40;;;;;;5072249;28;20174;-47
2021/04/05 04:02:44;;;;;;;6.32;0.68;;;1.50;85.70;;;;;;5069919;28;20170;-46
2021/04/05 04:05:31;;;;;;;5.65;0.70;;;1.40;87.60;;;;;;5078646;28;20201;-50
2021/04/05 04:08:18;;;;;;;10.45;1.23;;;1.50;87.20;;;;;;5086646;28;20173;-48
2021/04/05 04:10:47;;;;;;;9.45;0.98;;;1.40;90.00;;;;;;5063043;28;20189;-49
2021/04/05 04:13:13;;;;;;;11.48;1.40;;;1.40;91.00;;;;;;5051640;28;20186;-47
2021/04/05 04:15:39;;;;;;;9.73;1.10;;;1.30;91.60;;;;;;5069459;28;20548;-46
2021/04/05 04:18:05;;;;;;;6.22;1.08;;;1.30;91.90;;;;;;5081501;28;20194;-50
2021/04/05 04:20:32;;;;;;;3.50;0.70;;;1.10;92.60;;;;;;5066236;28;20619;-47
2021/04/05 04:22:58;;;;;;;11.00;1.23;;;1.30;90.50;;;;;;5078533;28;20642;-46
2021/04/05 04:25:25;;;;;;;6.85;1.10;;;1.30;90.30;;;;;;5056254;28;20204;-48
2021/04/05 04:27:51;;;;;;;8.52;1.23;;;1.20;90.10;;;;;;5065760;28;20194;-49
2021/04/05 04:30:33;;;;;;;10.13;1.25;;;1.20;91.50;;;;;;5064722;28;20210;-47
2021/04/05 04:33:04;;;;;;;2.72;0.80;;;1.10;90.70;;;;;;5065018;28;20178;-50
2021/04/05 04:35:31;;;;;;;6.32;0.95;;;1.10;90.50;;;;;;5058797;28;20194;-48
2021/04/05 04:37:58;;;;;;;9.30;1.15;;;1.10;91.20;;;;;;5072411;28;20173;-48
2021/04/05 04:40:28;;;;;;;3.97;0.85;;;1.00;91.10;;;;;;5061125;28;20173;-47
2021/04/05 04:42:55;;;;;;;3.65;0.73;;;1.00;91.30;;;;;;5057365;28;20651;-46
2021/04/05 04:45:22;;;;;;;2.20;0.57;;;1.10;90.40;;;;;;5055184;28;20178;-46
2021/04/05 04:47:53;;;;;;;9.57;0.80;;;1.10;90.00;;;;;;5077579;28;20171;-48
2021/04/05 04:50:19;;;;;;;3.05;0.75;;;1.10;90.10;;;;;;5054939;28;20178;-47
2021/04/05 04:52:46;;;;;;;5.90;1.20;;;1.10;88.40;;;;;;5070299;28;20196;-48
2021/04/05 04:55:12;;;;;;;13.95;0.70;;;1.10;90.10;;;;;;5057865;28;20215;-47
2021/04/05 04:57:38;;;;;;;5.15;1.17;;;1.10;88.10;;;;;;5054358;28;20179;-46
2021/04/05 05:00:06;;;;;;;4.78;0.43;;;1.20;88.20;;;;;;5055622;28;20217;-48
2021/04/05 05:02:33;;;;;;;5.30;0.57;;;1.20;88.50;;;;;;5061899;28;20170;-46
2021/04/05 05:04:59;;;;;;;4.95;0.60;;;1.20;89.60;;;;;;5074258;28;20193;-45
2021/04/05 05:07:26;;;;;;;3.70;0.70;;;1.20;88.20;;;;;;5051740;28;20189;-48
2021/04/05 05:09:52;;;;;;;2.28;0.40;;;1.20;88.70;;;;;;5054095;28;20534;-47
2021/04/05 05:12:18;;;;;;;8.00;1.00;;;1.20;90.10;;;;;;5078345;28;20174;-47
2021/04/05 05:14:46;;;;;;;11.98;1.10;;;1.20;90.60;;;;;;5069827;28;20196;-51
2021/04/05 05:17:12;;;;;;;3.83;0.82;;;1.20;91.10;;;;;;5068888;28;20166;-46
2021/04/05 05:19:38;;;;;;;5.38;0.80;;;1.20;90.20;;;;;;5074678;28;20209;-46
2021/04/05 05:22:05;;;;;;;4.88;0.65;;;1.20;90.60;;;;;;5072109;28;20197;-47
2021/04/05 05:24:31;;;;;;;1.98;0.52;;;1.20;89.50;;;;;;5066818;28;20174;-47
2021/04/05 05:26:58;;;;;;;6.28;0.80;;;1.20;87.50;;;;;;5077086;28;20649;-46
2021/04/05 05:29:24;;;;;;;1.75;0.30;;;1.20;85.30;;;;;;5069076;28;20233;-46
2021/04/05 05:31:50;;;;;;;2.25;0.45;;;1.20;87.90;;;;;;5082112;28;20197;-46
2021/04/05 05:34:18;;;;;;;5.93;0.55;;;1.20;85.20;;;;;;5065082;28;20181;-46
2021/04/05 05:36:44;;;;;;;3.88;0.52;;;1.20;85.00;;;;;;5058141;28;20546;-47
2021/04/05 05:39:11;;;;;;;2.22;0.40;;;1.20;85.00;;;;;;5057855;28;20241;-47
2021/04/05 05:41:43;;;;;;;2.63;0.32;;;1.20;85.70;;;;;;5054309;28;20179;-46
2021/04/05 05:44:12;;;;;;;3.58;0.98;;;1.10;85.60;;;;;;5068280;28;20193;-45
2021/04/05 05:47:10;;;;;;;3.90;0.50;;;1.10;87.00;;;;;;5068098;28;20169;-47
2021/04/05 05:49:45;;;;;;;5.57;0.70;;;1.10;86.20;;;;;;5054804;28;20205;-46
2021/04/05 05:52:15;;;;;;;1.35;0.68;;;1.20;86.70;;;;;;5056102;28;20178;-46
2021/04/05 05:55:13;;;;;;;5.45;0.50;;;1.30;85.90;;;;;;5059952;28;20210;-49
2021/04/05 05:57:52;;;;;;;11.90;0.50;;;1.40;85.60;;;;;;5059931;28;20159;-46
2021/04/05 06:00:24;;;;;;;7.13;0.50;;;1.50;84.90;;;;;;5068072;28;20210;-48
2021/04/05 06:03:32;;;;;;;1.70;0.52;;;1.70;83.70;;;;;;5053250;28;20190;-46
2021/04/05 06:06:31;;;;;;;1.15;0.47;;;1.80;82.70;;;;;;5065512;28;20560;-46
2021/04/05 06:09:12;;;;;;;3.40;0.50;;;1.80;81.50;;;;;;5050853;28;20250;-46
2021/04/05 06:11:47;;;;;;;2.28;0.50;;;1.60;79.90;;;;;;5056275;28;20531;-48
2021/04/05 06:14:28;;;;;;;3.17;0.47;;;1.60;83.90;;;;;;5085991;28;20180;-46
2021/04/05 06:17:24;;;;;;;3.22;1.05;;;1.50;86.40;;;;;;5057601;28;20174;-46
2021/04/05 06:19:50;;;;;;;1.77;0.60;;;1.40;84.10;;;;;;5059796;28;20218;-45
2021/04/05 06:22:25;;;;;;;6.72;0.70;;;1.30;81.60;;;;;;5052743;28;20170;-45
2021/04/05 06:25:16;;;;;;;8.82;0.70;;;1.40;84.60;;;;;;5052192;28;20205;-46
2021/04/05 06:27:54;;;;;;;0.85;0.25;;;1.50;84.60;;;;;;5067413;28;20574;-46
2021/04/05 06:30:30;;;;;;;2.80;0.43;;;1.60;83.90;;;;;;5068275;28;20289;-46
2021/04/05 06:32:56;;;;;;;4.78;0.52;;;1.50;82.30;;;;;;5061598;28;20523;-46
2021/04/05 06:35:40;;;;;;;3.08;0.28;;;1.40;82.50;;;;;;5068508;28;20178;-45
2021/04/05 06:38:31;;;;;;;3.60;0.35;;;1.30;81.70;;;;;;5066068;28;20176;-46
2021/04/05 06:41:00;;;;;;;2.67;0.50;;;1.40;81.40;;;;;;5052255;28;20170;-45
2021/04/05 06:43:48;;;;;;;4.90;0.80;;;1.60;81.60;;;;;;5077699;28;20193;-47
2021/04/05 06:46:22;;;;;;;3.72;0.57;;;1.80;81.80;;;;;;5044942;28;20499;-46
2021/04/05 06:49:03;;;;;;;2.50;0.30;;;1.70;81.60;;;;;;5071004;28;20174;-48
2021/04/05 06:51:54;;;;;;;1.63;0.30;;;1.60;81.90;;;;;;5065204;28;20534;-46
2021/04/05 06:54:26;;;;;;;3.13;0.52;;;1.80;83.30;;;;;;5071352;28;20158;-46
2021/04/05 06:57:15;;;;;;;2.63;0.45;;;1.80;79.80;;;;;;5070145;28;20169;-50
2021/04/05 06:59:45;;;;;;;4.80;0.52;;;2.00;81.80;;;;;;5076094;28;20247;-47
2021/04/05 07:02:33;;;;;;;0.38;0.03;;;1.70;81.40;;;;;;5092554;28;20161;-47
2021/04/05 07:05:24;;;;;;;2.35;0.43;;;1.50;84.80;;;;;;5065247;28;20582;-46
2021/04/05 07:08:10;;;;;;;5.60;0.20;;;1.40;82.50;;;;;;5071887;28;20535;-46
2021/04/05 07:10:51;;;;;;;4.13;0.30;;;1.30;87.00;;;;;;5070265;28;20177;-47
2021/04/05 07:13:27;;;;;;;2.72;0.95;;;1.30;88.00;;;;;;5051193;28;20185;-45
2021/04/05 07:15:59;;;;;;;3.28;0.38;;;1.50;88.20;;;;;;5034950;28;20180;-46
2021/04/05 07:18:38;;;;;;;4.78;0.50;;;1.30;90.20;;;;;;5058858;28;20167;-46
2021/04/05 07:21:10;;;;;;;2.65;0.60;;;1.40;91.10;;;;;;5067650;28;20190;-47
2021/04/05 07:23:43;;;;;;;1.98;0.32;;;1.30;88.90;;;;;;5067433;28;20490;-49
2021/04/05 07:26:26;;;;;;;4.28;0.63;;;1.20;89.60;;;;;;5052035;28;20158;-46
2021/04/05 07:29:09;;;;;;;3.05;0.50;;;1.40;91.00;;;;;;5050363;28;20669;-45
2021/04/05 07:31:50;;;;;;;0.85;0.25;;;1.50;91.20;;;;;;5051667;28;20170;-46
2021/04/05 07:34:19;;;;;;;6.57;0.77;;;1.50;90.00;;;;;;5060185;28;20174;-47
2021/04/05 07:36:52;;;;;;;3.83;0.45;;;1.70;90.50;;;;;;5051823;28;20250;-47
2021/04/05 07:39:31;;;;;;;6.13;1.08;;;2.10;90.10;;;;;;5051548;28;20206;-47
2021/04/05 07:42:07;;;;;;;1.67;0.20;;;2.40;89.10;;;;;;5066872;28;20155;-49
2021/04/05 07:44:37;;;;;;;2.92;0.30;;;2.50;83.50;;;;;;5066599;28;20177;-50
2021/04/05 07:47:07;;;;;;;5.18;0.35;;;2.50;85.30;;;;;;5034364;28;20544;-47
2021/04/05 07:49:36;;;;;;;0.95;0.30;;;2.70;84.00;;;;;;5051742;28;20175;-47
2021/04/05 07:52:23;;;;;;;2.92;0.10;;;2.90;82.80;;;;;;5050700;28;20515;-46
2021/04/05 07:54:49;;;;;;;1.92;0.32;;;2.70;81.40;;;;;;5051700;28;20635;-49
2021/04/05 07:57:28;;;;;;;2.78;0.57;;;2.70;84.10;;;;;;5052556;28;20182;-48
2021/04/05 08:00:13;;;;;;;1.30;0.30;;;2.60;82.00;;;;;;5066921;28;20209;-46
2021/04/05 08:03:27;;;;;;;2.28;0.35;;;2.70;83.50;;;;;;5051581;28;20191;-46
2021/04/05 08:06:07;;;;;;;0.85;0.22;;;3.20;83.50;;;;;;5060033;28;20205;-48
2021/04/05 08:08:57;;;;;;;0.70;0.30;;;3.10;78.00;;;;;;5076713;28;20185;-46
2021/04/05 08:11:41;;;;;;;3.75;0.20;;;3.90;80.70;;;;;;5075273;28;20162;-48
2021/04/05 08:14:38;;;;;;;0.50;0.10;;;4.10;77.40;;;;;;5069098;28;20185;-50
2021/04/05 08:17:23;;;;;;;0.90;0.20;;;3.10;81.70;;;;;;5078802;28;20178;-46
2021/04/05 08:20:34;;;;;;;2.10;0.40;;;2.40;84.80;;;;;;5067531;28;20206;-48
2021/04/05 08:23:06;;;;;;;0.55;0.00;;;3.10;81.20;;;;;;5063360;28;20229;-48
2021/04/05 08:26:00;;;;;;;1.77;0.30;;;3.60;80.80;;;;;;5062922;28;20642;-46
2021/04/05 08:28:48;;;;;;;3.25;0.22;;;2.80;95.00;;;;;;5054718;28;20201;-46
2021/04/05 08:31:38;;;;;;;2.60;0.60;;;2.80;92.10;;;;;;5056789;28;20197;-47
2021/04/05 08:34:31;;;;;;;4.85;0.28;;;3.40;91.70;;;;;;5060711;28;20167;-48
2021/04/05 08:37:31;;;;;;;1.55;0.30;;;4.30;88.00;;;;;;5061734;28;20521;-49
2021/04/05 08:40:08;;;;;;;0.25;0.20;;;5.20;85.70;;;;;;5072655;28;20674;-47
2021/04/05 08:42:45;;;;;;;0.28;0.17;;;4.00;76.10;;;;;;5063592;28;20176;-47
2021/04/05 08:45:14;;;;;;;1.02;0.20;;;3.90;77.50;;;;;;5076216;28;20181;-47
2021/04/05 08:47:42;;;;;;;2.53;0.60;;;4.30;79.00;;;;;;5055337;28;20670;-46
2021/04/05 08:50:09;;;;;;;3.45;0.43;;;4.50;81.40;;;;;;5063584;28;20187;-49
2021/04/05 08:52:39;;;;;;;6.13;0.50;;;5.10;85.50;;;;;;5061541;28;20183;-47
2021/04/05 08:55:06;;;;;;;5.47;0.57;;;5.60;77.90;;;;;;5058676;28;20182;-47
2021/04/05 08:57:39;;;;;;;1.25;0.30;;;5.70;76.70;;;;;;5070786;28;20197;-55
2021/04/05 09:00:10;;;;;;;1.77;0.40;;;6.60;79.10;;;;;;5070438;28;20681;-47
2021/04/05 09:02:37;;;;;;;1.35;0.40;;;6.00;70.80;;;;;;5063901;28;20183;-49
2021/04/05 09:05:15;;;;;;;2.33;0.52;;;5.40;74.20;;;;;;5072709;28;20190;-50
2021/04/05 09:07:58;;;;;;;0.45;0.20;;;5.10;71.90;;;;;;5073575;28;20162;-46
2021/04/05 09:10:31;;;;;;;0.13;0.10;;;3.40;73.40;;;;;;5057885;28;20165;-47
2021/04/05 09:12:58;;;;;;;2.20;0.35;;;2.70;74.30;;;;;;5071721;28;20174;-48
2021/04/05 09:15:27;;;;;;;2.55;0.30;;;3.60;76.60;;;;;;5070767;28;20173;-49
2021/04/05 09:18:12;;;;;;;7.85;0.50;;;4.60;71.80;;;;;;5071985;28;20622;-46
2021/04/05 09:20:57;;;;;;;2.17;0.40;;;5.20;71.10;;;;;;5070865;28;20535;-48
2021/04/05 09:23:48;;;;;;;2.95;0.55;;;5.90;73.50;;;;;;5070402;28;20177;-49
2021/04/05 09:26:37;;;;;;;0.55;0.25;;;5.30;67.00;;;;;;5072071;28;20189;-47
2021/04/05 09:29:06;;;;;;;4.88;0.80;;;5.60;68.80;;;;;;5072086;28;20174;-48
2021/04/05 09:31:57;;;;;;;2.45;0.35;;;6.40;70.00;;;;;;5073566;28;20186;-47
2021/04/05 09:34:29;;;;;;;3.85;0.50;;;6.90;69.50;;;;;;5073583;28;20633;-46
2021/04/05 09:37:32;;;;;;;9.55;0.57;;;6.50;65.10;;;;;;5073375;28;20162;-46
2021/04/05 09:40:24;;;;;;;4.10;0.85;;;5.30;66.30;;;;;;5073718;28;20220;-46
2021/04/05 09:43:18;;;;;;;5.35;0.93;;;5.80;65.40;;;;;;5063033;28;20194;-51
2021/04/05 09:46:10;;;;;;;2.33;0.60;;;6.20;69.10;;;;;;5057252;28;20186;-49
2021/04/05 09:49:14;;;;;;;4.07;0.50;;;5.20;71.50;;;;;;5073344;28;20158;-46
2021/04/05 09:51:59;;;;;;;4.63;0.40;;;5.70;74.10;;;;;;5072776;28;20185;-47
2021/04/05 09:54:34;;;;;;;1.90;0.60;;;7.60;74.40;;;;;;5072203;28;20186;-49
2021/04/05 09:57:01;;;;;;;1.80;0.38;;;7.20;67.00;;;;;;5073359;28;20637;-48
2021/04/05 09:59:49;;;;;;;5.10;0.50;;;8.20;66.10;;;;;;5071785;28;20662;-48
2021/04/05 10:02:16;;;;;;;1.35;0.57;;;7.70;61.20;;;;;;5071626;28;20186;-47
2021/04/05 10:04:45;;;;;;;2.38;0.40;;;6.70;65.70;;;;;;5072656;28;20194;-47
2021/04/05 10:07:12;;;;;;;1.33;0.30;;;6.40;65.20;;;;;;5071614;28;20166;-49
2021/04/05 10:09:38;;;;;;;6.03;0.20;;;6.40;67.40;;;;;;5072791;28;20201;-46
2021/04/05 10:12:05;;;;;;;1.40;0.30;;;6.90;68.20;;;;;;5071518;28;20166;-48
2021/04/05 10:14:31;;;;;;;4.22;0.40;;;6.50;64.60;;;;;;5071397;28;20166;-50
2021/04/05 10:16:58;;;;;;;1.38;0.20;;;5.40;68.90;;;;;;5071579;28;20162;-47
2021/04/05 10:19:34;;;;;;;1.95;0.47;;;6.10;68.30;;;;;;5071502;28;20195;-47
2021/04/05 10:22:06;;;;;;;2.03;1.15;;;6.70;65.50;;;;;;5072763;28;20158;-46
2021/04/05 10:24:33;;;;;;;2.60;0.45;;;7.50;63.70;;;;;;5054709;28;20185;-46
2021/04/05 10:27:01;;;;;;;1.40;0.30;;;8.30;62.80;;;;;;5071512;28;20614;-46
2021/04/05 10:29:30;;;;;;;2.72;0.52;;;8.00;62.10;;;;;;5070852;28;20621;-46
2021/04/05 10:31:59;;;;;;;3.70;0.50;;;7.40;62.50;;;;;;5070542;28;20181;-47
2021/04/05 10:34:26;;;;;;;0.63;0.20;;;7.30;61.80;;;;;;5072738;28;20648;-46
2021/04/05 10:37:17;;;;;;;77.13;70.32;;;6.60;61.00;;;;;;5070877;28;20202;-47
2021/04/05 10:39:47;;;;;;;379.85;294.10;;;7.20;59.70;;;;;;5071887;28;20209;-47
2021/04/05 10:42:26;;;;;;;217.40;198.73;;;7.40;61.10;;;;;;5070136;28;20174;-46
2021/04/05 10:45:02;;;;;;;211.02;195.05;;;7.20;61.70;;;;;;5067495;28;20190;-46
2021/04/05 10:47:30;;;;;;;45.92;42.63;;;7.50;61.30;;;;;;5052357;28;20159;-47
2021/04/05 10:49:57;;;;;;;1.55;0.40;;;8.20;58.50;;;;;;5051574;28;20178;-47
2021/04/05 10:52:38;;;;;;;4.22;0.38;;;9.50;63.10;;;;;;5067947;28;20178;-47
2021/04/05 10:55:05;;;;;;;46.80;43.53;;;8.50;56.40;;;;;;5052412;28;20162;-47
2021/04/05 10:57:35;;;;;;;354.30;322.08;;;7.40;55.80;;;;;;5067294;28;20190;-47
2021/04/05 11:00:16;;;;;;;374.75;293.67;;;7.10;53.50;;;;;;5067655;28;20670;-47
2021/04/05 11:03:10;;;;;;;546.55;336.48;;;7.10;57.20;;;;;;5067110;28;20679;-47
2021/04/05 11:05:36;;;;;;;409.45;369.20;;;9.30;57.20;;;;;;5051858;28;20213;-50
2021/04/05 11:08:04;;;;;;;520.00;371.88;;;9.10;53.30;;;;;;5067219;28;20193;-48
2021/04/05 11:10:32;;;;;;;530.40;366.98;;;7.70;53.60;;;;;;5067282;28;20182;-47
2021/04/05 11:13:07;;;;;;;429.35;301.10;;;8.50;55.90;;;;;;5078277;28;20174;-48
2021/04/05 11:15:36;;;;;;;500.85;299.50;;;7.70;54.40;;;;;;5054822;28;20161;-47
2021/04/05 11:18:03;;;;;;;235.68;207.48;;;8.40;57.20;;;;;;5070930;28;20178;-47
2021/04/05 11:20:35;;;;;;;644.38;277.73;;;8.70;55.90;;;;;;5070486;28;20220;-49
2021/04/05 11:23:12;;;;;;;796.67;267.08;;;7.50;53.60;;;;;;5072576;28;20178;-47
2021/04/05 11:25:46;;;;;;;8.25;7.50;;;6.90;55.10;;;;;;5058515;28;20501;-47
2021/04/05 11:28:22;;;;;;;2.08;0.57;;;7.50;55.50;;;;;;5070084;28;20723;-47
2021/04/05 11:30:49;;;;;;;3.40;0.50;;;8.10;55.10;;;;;;5073715;28;20230;-48
2021/04/05 11:33:16;;;;;;;0.82;0.17;;;9.70;55.50;;;;;;5066047;28;20170;-48
2021/04/05 11:35:43;;;;;;;1.17;0.30;;;9.40;51.00;;;;;;5065123;28;20201;-48
2021/04/05 11:38:11;;;;;;;92.75;33.22;;;9.80;55.00;;;;;;5073646;28;20175;-48
2021/04/05 11:40:37;;;;;;;801.13;225.25;;;8.90;53.30;;;;;;5075578;28;20202;-46
2021/04/05 11:43:09;;;;;;;862.67;391.53;;;9.90;53.80;;;;;;5074361;28;20374;-47
2021/04/05 11:45:46;;;;;;;;;;;9.40;53.80;;;;;;5056398;28;20387;-47
2021/04/05 11:48:14;;;;;;;;;;;10.00;53.30;;;;;;5054720;28;20396;-48
2021/04/05 11:50:42;;;;;;;;;;;9.40;50.10;;;;;;5054901;28;20418;-47
2021/04/05 11:53:09;;;;;;;;;;;9.10;53.10;;;;;;5053748;28;25100;-47
2021/04/05 11:55:37;;;;;;;;;;;10.00;54.00;;;;;;5060233;28;25062;-47
2021/04/05 11:58:22;;;;;;;;;;;9.10;51.20;;;;;;5053161;28;25084;-47
2021/04/05 12:00:57;;;;;;;;;;;9.20;54.10;;;;;;5056212;28;25075;-49
2021/04/05 12:03:59;;;;;;;;;;;8.50;56.10;;;;;;5074790;28;19913;-48
2021/04/05 12:06:31;;;;;;;;;;;8.40;51.80;;;;;;5045558;28;25087;-49
2021/04/05 12:08:59;;;;;;;;;;;6.90;52.30;;;;;;5062937;28;25093;-47
2021/04/05 12:11:28;;;;;;;;;;;6.70;55.00;;;;;;5070731;28;25153;-48
2021/04/05 12:14:15;;;;;;;;;;;8.60;57.30;;;;;;5084906;28;25129;-47
2021/04/05 12:16:41;;;;;;;;;;;9.50;54.70;;;;;;5066617;28;25076;-47
2021/04/05 12:19:06;;;;;;;;;;;10.10;55.80;;;;;;5066955;28;25122;-47
2021/04/05 12:21:33;;;;;;;;;;;10.40;56.40;;;;;;5051414;28;25153;-47
2021/04/05 12:24:00;;;;;;;;;;;9.30;54.40;;;;;;5071636;28;25083;-48
2021/04/05 12:26:26;;;;;;;;;;;7.30;56.10;;;;;;5073571;28;25061;-48
2021/04/05 12:28:53;;;;;;;;;;;6.50;59.30;;;;;;5068373;28;25054;-48
2021/04/05 12:31:22;;;;;;;;;;;6.50;59.00;;;;;;5059318;28;25073;-47
2021/04/05 12:33:48;;;;;;;;;;;6.40;64.30;;;;;;5056339;28;20393;-47
2021/04/05 12:36:14;;;;;;;;;;;5.40;64.00;;;;;;5056034;28;20440;-49
2021/04/05 12:38:40;;;;;;;;;;;5.50;66.90;;;;;;5061742;28;20380;-46
2021/04/05 12:41:07;;;;;;;;;;;6.20;69.80;;;;;;5063282;28;20464;-48
2021/04/05 12:43:34;;;;;;;;;;;5.90;67.80;;;;;;5052236;28;25104;-47
2021/04/05 12:46:01;;;;;;;;;;;5.90;70.20;;;;;;5052493;28;20384;-46
2021/04/05 12:48:28;;;;;;;;;;;6.40;69.10;;;;;;5065059;28;20427;-49
2021/04/05 12:51:01;;;;;;;;;;;6.70;69.40;;;;;;5062363;28;20758;-49
2021/04/05 12:53:28;;;;;;;;;;;7.20;70.00;;;;;;5069189;28;20420;-46
2021/04/05 12:55:55;;;;;;;;;;;7.10;68.40;;;;;;5060333;28;20793;-46
2021/04/05 12:58:27;;;;;;;;;;;6.20;70.00;;;;;;5046257;28;20406;-47
2021/04/05 13:00:53;;;;;;;;;;;6.40;69.50;;;;;;5047615;28;25071;-46
2021/04/05 13:03:30;;;;;;;;;;;6.30;71.10;;;;;;5057499;28;25107;-46
2021/04/05 13:06:05;;;;;;;;;;;6.20;72.90;;;;;;5053804;28;25105;-47
2021/04/05 13:08:34;;;;;;;;;;;6.70;71.20;;;;;;5051238;28;20396;-50
2021/04/05 13:11:04;;;;;;;;;;;6.80;69.50;;;;;;5054794;28;25057;-47
2021/04/05 13:13:31;;;;;;;;;;;6.90;71.30;;;;;;5072261;28;25095;-41
2021/04/05 13:16:00;;;;;;;;;;;6.50;70.40;;;;;;5056992;28;20388;-41
2021/04/05 13:18:26;;;;;;;;;;;7.10;73.40;;;;;;5074883;28;20464;-50
2021/04/05 13:21:03;;;;;;;;;;;7.10;68.90;;;;;;5065467;28;25169;-41
2021/04/05 13:23:29;;;;;;;;;;;7.00;70.30;;;;;;5055049;28;25113;-42
2021/04/05 13:26:05;;;;;;;828.30;223.80;;;7.40;69.80;;;;;;5051059;28;20387;-50
2021/04/05 13:28:31;;;;;;;838.50;246.80;;;7.80;67.50;;;;;;5083782;28;20404;-41
2021/04/05 13:31:07;;;;;;;;;;;7.90;69.80;;;;;;5049664;28;20401;-47
2021/04/05 13:33:35;;;;;;;;;;;7.50;67.90;;;;;;5065254;28;20369;-51
2021/04/05 13:36:11;;;;;;;;;;;6.90;69.30;;;;;;5058156;28;25115;-46